Time;durP1;ratioP1;P1;durP2;ratioP2;P2;SDS_P1;SDS_P2;PMS_P1;PMS_P2;Temp;Humidity;BMP_temperature;BMP_pressure;BME280_temperature;BME280_humidity;BME280_pressure;Samples;Min_cycle;Max_cycle;Signal;HPM_P1;HPM_P2
2022/12/03 00:00:47;;;;;;;2.00;1.50;;;0.30;93.40;;;;;;5032560;28;20434;-76
2022/12/03 00:03:14;;;;;;;1.20;0.97;;;0.30;99.90;;;;;;5048289;28;20437;-76
2022/12/03 00:05:44;;;;;;;1.98;1.33;;;0.30;99.90;;;;;;5038609;28;20435;-77
2022/12/03 00:08:15;;;;;;;3.20;1.10;;;0.30;99.90;;;;;;5049921;28;20491;-77
2022/12/03 00:10:42;;;;;;;2.20;1.50;;;0.30;99.90;;;;;;5035734;28;20469;-77
2022/12/03 00:13:08;;;;;;;1.17;0.88;;;0.30;99.90;;;;;;5031852;28;20525;-77
2022/12/03 00:15:35;;;;;;;3.90;1.23;;;0.40;99.90;;;;;;5043654;28;20955;-77
2022/12/03 00:18:02;;;;;;;1.38;0.80;;;0.40;99.90;;;;;;5035563;28;20805;-77
2022/12/03 00:20:29;;;;;;;2.08;1.17;;;0.40;99.90;;;;;;5032851;28;20483;-77
2022/12/03 00:22:56;;;;;;;1.55;1.40;;;0.40;99.90;;;;;;5048305;28;20433;-77
2022/12/03 00:25:22;;;;;;;1.48;1.23;;;0.40;99.90;;;;;;5047489;28;20425;-77
2022/12/03 00:27:49;;;;;;;1.83;1.58;;;0.40;99.90;;;;;;5052854;28;20463;-77
2022/12/03 00:30:16;;;;;;;1.00;1.00;;;0.40;99.90;;;;;;5044123;28;20436;-77
2022/12/03 00:32:43;;;;;;;1.33;1.15;;;0.40;99.90;;;;;;5042415;28;20821;-77
2022/12/03 00:35:09;;;;;;;1.13;1.08;;;0.40;99.90;;;;;;5035818;28;20431;-77
2022/12/03 00:37:36;;;;;;;2.30;1.40;;;0.40;99.90;;;;;;5044598;28;20885;-77
2022/12/03 00:40:04;;;;;;;1.20;1.07;;;0.40;99.90;;;;;;5041031;28;20441;-77
2022/12/03 00:42:31;;;;;;;1.30;1.20;;;0.40;99.90;;;;;;5033613;28;20435;-77
2022/12/03 00:44:58;;;;;;;2.67;1.63;;;0.40;99.90;;;;;;5036683;28;20468;-76
2022/12/03 00:47:24;;;;;;;3.50;1.20;;;0.50;99.90;;;;;;5038403;28;20436;-76
2022/12/03 00:49:51;;;;;;;1.10;1.03;;;0.40;99.90;;;;;;5045947;28;20457;-77
2022/12/03 00:52:24;;;;;;;1.10;0.73;;;0.40;99.90;;;;;;5052763;28;20437;-76
2022/12/03 00:54:51;;;;;;;1.58;1.48;;;0.40;99.90;;;;;;5045202;28;20999;-77
2022/12/03 00:57:18;;;;;;;2.10;1.97;;;0.50;99.90;;;;;;5050393;28;20974;-77
2022/12/03 00:59:44;;;;;;;2.00;1.37;;;0.40;99.90;;;;;;5047720;28;20474;-77
2022/12/03 01:02:12;;;;;;;4.05;1.20;;;0.40;99.90;;;;;;5034905;28;20434;-76
2022/12/03 01:04:38;;;;;;;4.18;2.30;;;0.40;99.90;;;;;;5040517;28;20430;-76
2022/12/03 01:07:05;;;;;;;3.30;2.27;;;0.40;99.90;;;;;;5046307;28;20439;-77
2022/12/03 01:09:32;;;;;;;3.20;1.23;;;0.40;99.90;;;;;;5050155;28;20464;-77
2022/12/03 01:11:59;;;;;;;2.87;1.50;;;0.40;99.90;;;;;;5040573;28;21040;-77
2022/12/03 01:14:26;;;;;;;2.73;1.63;;;0.40;99.90;;;;;;5046012;28;21181;-76
2022/12/03 01:16:52;;;;;;;2.75;2.15;;;0.40;99.90;;;;;;5037821;28;20430;-76
2022/12/03 01:19:19;;;;;;;2.95;1.77;;;0.40;99.90;;;;;;5046387;28;20985;-77
2022/12/03 01:21:48;;;;;;;0.93;0.90;;;0.40;99.90;;;;;;5053495;28;20440;-77
2022/12/03 01:24:16;;;;;;;3.13;1.67;;;0.40;99.90;;;;;;5052944;28;20456;-77
2022/12/03 01:26:44;;;;;;;2.90;1.35;;;0.40;99.90;;;;;;5050123;28;20425;-77
2022/12/03 01:29:10;;;;;;;1.60;1.40;;;0.40;99.90;;;;;;5049531;28;20452;-77
2022/12/03 01:34:22;;;;;;;1.73;1.60;;;0.50;99.90;;;;;;5037183;28;20429;-77
2022/12/03 01:36:52;;;;;;;1.93;1.40;;;0.50;99.90;;;;;;5050747;28;20488;-77
2022/12/03 01:39:19;;;;;;;3.03;2.05;;;0.50;99.90;;;;;;5035395;28;20520;-77
2022/12/03 01:41:51;;;;;;;2.90;1.70;;;0.50;99.90;;;;;;5051152;28;20425;-77
2022/12/03 01:44:24;;;;;;;2.22;1.63;;;0.50;99.90;;;;;;5039729;28;20971;-77
2022/12/03 01:46:53;;;;;;;5.63;1.88;;;0.50;99.90;;;;;;5040871;28;20433;-77
2022/12/03 01:49:24;;;;;;;2.27;2.10;;;0.50;99.90;;;;;;5033278;28;20530;-77
2022/12/03 01:51:52;;;;;;;5.50;2.15;;;0.50;99.90;;;;;;5038432;28;21162;-78
2022/12/03 01:54:25;;;;;;;5.18;2.10;;;0.50;99.90;;;;;;5032719;28;20493;-77
2022/12/03 01:56:54;;;;;;;1.48;1.38;;;0.50;99.90;;;;;;5037005;28;20441;-77
2022/12/03 01:59:24;;;;;;;2.13;1.92;;;0.50;99.90;;;;;;5050878;28;20491;-77
2022/12/03 02:01:50;;;;;;;3.70;2.25;;;0.50;99.90;;;;;;5043583;28;20422;-77
2022/12/03 02:04:21;;;;;;;1.77;1.25;;;0.60;99.90;;;;;;5040721;28;21122;-77
2022/12/03 02:06:48;;;;;;;4.50;2.30;;;0.60;99.90;;;;;;5047695;28;20459;-76
2022/12/03 02:09:14;;;;;;;1.50;1.40;;;0.60;99.90;;;;;;5032904;28;20481;-77
2022/12/03 02:11:47;;;;;;;2.25;2.05;;;0.60;83.20;;;;;;5032632;28;21213;-77
2022/12/03 02:14:20;;;;;;;1.98;1.80;;;0.60;6.50;;;;;;5032061;28;20441;-77
2022/12/03 02:16:47;;;;;;;6.40;1.88;;;0.60;1.00;;;;;;5040986;28;20468;-77
2022/12/03 02:19:26;;;;;;;2.10;1.63;;;0.60;1.00;;;;;;5032171;28;20469;-76
2022/12/03 02:22:04;;;;;;;2.40;1.83;;;0.60;1.00;;;;;;5048261;28;20508;-77
2022/12/03 02:24:57;;;;;;;4.10;2.05;;;0.70;1.00;;;;;;5046187;28;20431;-77
2022/12/03 02:27:26;;;;;;;4.40;2.10;;;0.70;1.00;;;;;;5042913;28;20511;-77
2022/12/03 02:29:53;;;;;;;2.83;1.60;;;0.60;99.90;;;;;;5047557;28;20435;-77
2022/12/03 02:32:22;;;;;;;2.00;1.27;;;0.70;99.90;;;;;;5040586;28;20429;-77
2022/12/03 02:34:50;;;;;;;2.13;1.88;;;0.70;99.90;;;;;;5045179;28;20442;-77
2022/12/03 02:37:26;;;;;;;1.80;1.35;;;0.70;94.80;;;;;;5045104;28;20429;-77
2022/12/03 02:39:56;;;;;;;5.10;2.10;;;0.70;1.00;;;;;;5040959;28;20427;-77
2022/12/03 02:42:36;;;;;;;6.20;1.70;;;0.70;1.00;;;;;;5052119;28;20513;-78
2022/12/03 02:45:38;;;;;;;6.18;2.78;;;0.70;1.00;;;;;;5044348;28;20412;-78
2022/12/03 02:48:13;;;;;;;5.32;2.25;;;0.70;1.00;;;;;;5042055;28;20439;-77
2022/12/03 02:50:43;;;;;;;3.90;1.75;;;0.80;99.90;;;;;;5037419;28;20470;-77
2022/12/03 02:53:17;;;;;;;5.15;2.15;;;0.80;99.90;;;;;;5042863;28;20437;-77
2022/12/03 02:55:44;;;;;;;2.80;2.03;;;0.80;1.00;;;;;;5046147;28;20982;-77
2022/12/03 02:58:12;;;;;;;4.72;2.17;;;0.80;99.90;;;;;;5048878;28;21051;-77
2022/12/03 03:00:39;;;;;;;1.63;1.27;;;0.80;99.90;;;;;;5043007;28;20500;-77
2022/12/03 03:03:09;;;;;;;9.80;2.40;;;0.80;99.10;;;;;;5039699;28;20433;-77
2022/12/03 03:05:38;;;;;;;5.15;1.80;;;0.80;99.90;;;;;;5049148;28;20425;-77
2022/12/03 03:08:07;;;;;;;1.90;1.60;;;0.80;99.90;;;;;;5047221;28;20440;-77
2022/12/03 03:10:36;;;;;;;3.83;2.80;;;0.90;99.90;;;;;;5039789;28;20486;-77
2022/12/03 03:13:12;;;;;;;4.60;2.55;;;0.90;99.90;;;;;;5048881;28;20482;-77
2022/12/03 03:15:40;;;;;;;2.00;1.57;;;0.90;99.90;;;;;;5047172;28;20473;-77
2022/12/03 03:18:08;;;;;;;2.13;1.98;;;0.90;99.90;;;;;;5070829;28;20909;-77
2022/12/03 03:20:36;;;;;;;1.58;1.08;;;1.00;99.90;;;;;;5050413;28;20433;-77
2022/12/03 03:23:25;;;;;;;3.53;1.80;;;1.00;99.90;;;;;;5048070;28;20429;-77
2022/12/03 03:26:00;;;;;;;3.13;2.20;;;1.00;99.90;;;;;;5039877;28;20427;-76
2022/12/03 03:28:29;;;;;;;4.28;2.33;;;1.00;99.90;;;;;;5034841;28;20945;-76
2022/12/03 03:30:59;;;;;;;2.90;1.60;;;1.00;99.90;;;;;;5037524;28;20425;-77
2022/12/03 03:33:26;;;;;;;2.63;1.98;;;1.00;99.90;;;;;;5049112;28;20431;-77
2022/12/03 03:35:53;;;;;;;3.40;1.67;;;1.00;99.90;;;;;;5049591;28;20464;-77
2022/12/03 03:38:22;;;;;;;3.25;2.33;;;1.00;99.90;;;;;;5048481;28;20922;-77
2022/12/03 03:40:50;;;;;;;6.72;2.72;;;1.00;99.90;;;;;;5041410;28;20430;-77
2022/12/03 03:43:24;;;;;;;2.97;2.08;;;1.00;99.90;;;;;;5040657;28;20436;-77
2022/12/03 03:45:53;;;;;;;1.98;1.83;;;1.00;99.90;;;;;;5038627;28;20823;-77
2022/12/03 03:48:21;;;;;;;3.28;2.00;;;1.10;99.90;;;;;;5036484;28;20495;-77
2022/12/03 03:50:49;;;;;;;1.80;1.70;;;1.10;99.90;;;;;;5040980;28;20474;-77
2022/12/03 03:53:17;;;;;;;4.70;1.23;;;1.10;99.90;;;;;;5046429;28;20436;-77
2022/12/03 03:55:44;;;;;;;2.77;1.83;;;1.10;99.90;;;;;;5037097;28;20487;-77
2022/12/03 03:58:11;;;;;;;2.65;1.95;;;1.00;99.90;;;;;;5034537;28;20443;-78
2022/12/03 04:00:38;;;;;;;3.13;1.48;;;1.10;99.90;;;;;;5031910;28;20437;-78
2022/12/03 04:03:05;;;;;;;2.08;1.27;;;1.10;99.90;;;;;;5035496;28;20992;-78
2022/12/03 04:05:32;;;;;;;2.83;1.75;;;1.10;99.90;;;;;;5031155;28;20917;-78
2022/12/03 04:07:59;;;;;;;3.33;2.10;;;1.10;99.90;;;;;;5036789;28;20442;-78
2022/12/03 04:13:14;;;;;;;3.05;1.40;;;1.10;99.90;;;;;;5050525;28;20441;-78
2022/12/03 04:15:41;;;;;;;2.27;1.77;;;1.10;99.90;;;;;;5042002;28;20433;-78
2022/12/03 04:22:38;;;;;;;2.85;1.55;;;1.00;99.90;;;;;;5050040;28;20455;-78
2022/12/03 04:23:45;;;;;;;6.78;1.63;;;1.10;99.90;;;;;;5037093;28;20452;-78
2022/12/03 04:29:00;;;;;;;0.90;0.90;;;1.00;99.90;;;;;;5034555;28;20435;-79
2022/12/03 04:37:00;;;;;;;1.40;1.10;;;1.00;99.90;;;;;;5049327;28;20438;-78
2022/12/03 04:39:30;;;;;;;1.90;1.70;;;1.00;99.90;;;;;;5046149;28;20941;-78
2022/12/03 04:42:01;;;;;;;3.80;1.70;;;1.00;99.90;;;;;;5047925;28;20433;-79
2022/12/03 04:44:37;;;;;;;1.17;1.08;;;1.00;99.90;;;;;;5044134;28;20427;-78
2022/12/03 04:47:15;;;;;;;1.45;1.15;;;1.00;99.90;;;;;;5049042;28;20429;-78
2022/12/03 04:49:44;;;;;;;4.63;1.93;;;1.00;99.90;;;;;;5034623;28;20436;-79
2022/12/03 04:52:14;;;;;;;4.25;1.67;;;1.00;99.90;;;;;;5048874;28;20468;-79
2022/12/03 04:54:41;;;;;;;0.73;0.73;;;1.00;99.90;;;;;;5050423;28;20425;-79
2022/12/03 04:57:08;;;;;;;2.25;1.55;;;1.00;99.90;;;;;;5040245;28;20908;-79
2022/12/03 04:59:35;;;;;;;2.88;1.63;;;1.00;99.90;;;;;;5055206;28;20429;-78
2022/12/03 05:02:04;;;;;;;1.50;1.30;;;1.00;99.90;;;;;;5049738;28;20424;-79
2022/12/03 05:04:31;;;;;;;2.55;1.80;;;1.00;99.90;;;;;;5050465;28;20437;-78
2022/12/03 05:06:57;;;;;;;0.90;0.90;;;1.00;99.90;;;;;;5049851;28;20429;-78
2022/12/03 05:09:24;;;;;;;1.88;1.60;;;1.00;99.90;;;;;;5054765;28;20573;-78
2022/12/03 05:11:51;;;;;;;2.92;0.85;;;1.00;99.90;;;;;;5052788;28;20512;-78
2022/12/03 05:14:18;;;;;;;4.00;1.20;;;1.00;99.90;;;;;;5056030;28;20630;-78
2022/12/03 05:16:45;;;;;;;2.10;1.52;;;1.00;99.90;;;;;;5074130;28;20431;-78
2022/12/03 05:19:14;;;;;;;3.20;1.45;;;0.90;99.90;;;;;;5053046;28;20424;-78
2022/12/03 05:21:41;;;;;;;3.05;1.38;;;0.90;99.90;;;;;;5053204;28;20457;-78
2022/12/03 05:24:14;;;;;;;2.33;1.42;;;0.90;99.90;;;;;;5054025;28;20429;-78
2022/12/03 05:26:44;;;;;;;2.37;1.47;;;1.00;99.90;;;;;;5053924;28;20899;-78
2022/12/03 05:29:11;;;;;;;1.40;1.30;;;1.00;99.90;;;;;;5050415;28;20434;-78
2022/12/03 05:31:37;;;;;;;0.70;0.70;;;1.00;99.90;;;;;;5040446;28;20425;-78
2022/12/03 05:34:04;;;;;;;3.83;1.85;;;1.00;99.90;;;;;;5053427;28;20435;-78
2022/12/03 05:36:31;;;;;;;1.60;1.45;;;1.00;99.90;;;;;;5038594;28;20427;-79
2022/12/03 05:39:05;;;;;;;3.40;1.85;;;1.00;99.90;;;;;;5035864;28;20438;-78
2022/12/03 05:44:55;;;;;;;4.00;1.63;;;1.10;99.90;;;;;;5050375;28;20912;-78
2022/12/03 05:47:22;;;;;;;0.98;0.98;;;1.00;99.90;;;;;;5054224;28;20471;-79
2022/12/03 05:49:49;;;;;;;1.20;1.00;;;1.00;99.90;;;;;;5038316;28;20439;-78
2022/12/03 05:52:16;;;;;;;1.40;1.30;;;1.00;99.90;;;;;;5044157;28;20431;-78
2022/12/03 05:54:43;;;;;;;1.15;0.90;;;1.00;99.90;;;;;;5036704;28;20865;-79
2022/12/03 05:57:09;;;;;;;1.67;1.13;;;1.00;99.90;;;;;;5050885;28;20465;-79
2022/12/03 05:59:36;;;;;;;2.15;1.00;;;1.00;99.90;;;;;;5052772;28;20430;-79
2022/12/03 06:02:03;;;;;;;3.30;2.03;;;1.00;99.90;;;;;;5058061;28;20428;-78
2022/12/03 06:04:32;;;;;;;0.70;0.70;;;1.00;99.90;;;;;;5059667;28;20808;-78
2022/12/03 06:07:23;;;;;;;2.53;2.35;;;1.00;99.90;;;;;;5044648;28;20459;-79
2022/12/03 06:10:05;;;;;;;2.90;1.55;;;1.00;99.90;;;;;;5045914;28;20441;-78
2022/12/03 06:13:10;;;;;;;1.35;1.20;;;1.00;99.90;;;;;;5047190;28;20462;-78
2022/12/03 06:15:37;;;;;;;1.70;1.60;;;1.00;99.90;;;;;;5047498;28;20429;-78
2022/12/03 06:18:09;;;;;;;5.32;1.23;;;1.00;99.90;;;;;;5044792;28;20431;-78
2022/12/03 06:20:36;;;;;;;1.60;0.90;;;1.00;99.90;;;;;;5047407;28;20436;-78
2022/12/03 06:23:03;;;;;;;0.98;0.95;;;1.00;99.90;;;;;;5049183;28;20432;-78
2022/12/03 06:25:30;;;;;;;1.92;1.23;;;1.10;99.90;;;;;;5043398;28;20427;-78
2022/12/03 06:27:56;;;;;;;1.83;1.60;;;1.10;99.90;;;;;;5042198;28;21257;-79
2022/12/03 06:30:23;;;;;;;1.63;1.53;;;1.00;99.90;;;;;;5041795;28;20426;-77
2022/12/03 06:33:06;;;;;;;1.42;1.42;;;1.00;99.90;;;;;;5036729;28;20588;-77
2022/12/03 06:35:33;;;;;;;1.80;1.02;;;1.00;99.90;;;;;;5037929;28;20439;-77
2022/12/03 06:38:02;;;;;;;1.55;1.45;;;1.00;99.90;;;;;;5040297;28;20434;-77
2022/12/03 06:40:29;;;;;;;0.90;0.90;;;1.00;99.90;;;;;;5046444;28;20468;-74
2022/12/03 06:43:02;;;;;;;1.58;1.23;;;1.00;99.90;;;;;;5040608;28;20542;-73
2022/12/03 06:45:29;;;;;;;3.70;1.23;;;1.00;99.90;;;;;;5048349;28;20453;-74
2022/12/03 06:47:55;;;;;;;1.70;1.40;;;1.00;99.90;;;;;;5040186;28;21126;-74
2022/12/03 06:50:23;;;;;;;1.42;1.02;;;1.00;99.90;;;;;;5050744;28;20431;-74
2022/12/03 06:52:49;;;;;;;1.10;1.00;;;1.00;99.90;;;;;;5048455;28;20445;-75
2022/12/03 06:55:16;;;;;;;2.97;1.38;;;1.00;99.90;;;;;;5038731;28;20425;-74
2022/12/03 06:57:43;;;;;;;1.50;1.30;;;1.00;99.90;;;;;;5049302;28;20433;-74
2022/12/03 07:00:10;;;;;;;3.40;2.20;;;0.90;99.90;;;;;;5043428;28;20514;-74
2022/12/03 07:02:39;;;;;;;3.38;0.88;;;0.90;99.90;;;;;;5037165;28;20573;-77
2022/12/03 07:05:06;;;;;;;1.17;1.08;;;0.90;99.90;;;;;;5034953;28;20458;-75
2022/12/03 07:07:33;;;;;;;2.20;1.13;;;0.90;99.90;;;;;;5039623;28;20566;-76
2022/12/03 07:10:00;;;;;;;1.60;1.20;;;0.90;99.90;;;;;;5043287;28;20923;-75
2022/12/03 07:12:27;;;;;;;2.22;1.67;;;0.90;99.90;;;;;;5042631;28;20433;-75
2022/12/03 07:14:57;;;;;;;0.98;0.82;;;0.90;99.90;;;;;;5039526;28;20429;-75
2022/12/03 07:17:27;;;;;;;1.15;1.15;;;1.00;99.90;;;;;;5040076;28;20540;-75
2022/12/03 07:19:54;;;;;;;0.75;0.75;;;1.00;99.90;;;;;;5031642;28;20432;-75
2022/12/03 07:22:21;;;;;;;1.27;1.20;;;1.00;99.90;;;;;;5036747;28;20430;-75
2022/12/03 07:24:47;;;;;;;2.25;2.03;;;1.00;99.90;;;;;;5026656;28;21521;-75
2022/12/03 07:27:14;;;;;;;1.95;1.77;;;1.00;99.90;;;;;;5031741;28;20920;-75
2022/12/03 07:29:41;;;;;;;1.40;1.15;;;1.00;99.90;;;;;;5033240;28;20425;-75
2022/12/03 07:32:08;;;;;;;1.55;1.45;;;1.00;99.90;;;;;;5036238;28;20437;-75
2022/12/03 07:34:35;;;;;;;2.20;1.10;;;1.10;99.90;;;;;;5033906;28;20433;-75
2022/12/03 07:37:02;;;;;;;4.65;1.13;;;1.10;99.90;;;;;;5032768;28;20442;-75
2022/12/03 07:39:28;;;;;;;2.03;1.80;;;1.10;99.90;;;;;;5040998;28;20444;-75
2022/12/03 07:41:55;;;;;;;1.80;1.50;;;1.10;99.90;;;;;;5039443;28;20421;-70
2022/12/03 07:44:22;;;;;;;2.22;2.05;;;1.20;99.90;;;;;;5040845;28;20425;-76
2022/12/03 07:46:48;;;;;;;1.85;0.93;;;1.20;99.90;;;;;;5042623;28;20807;-71
2022/12/03 07:49:15;;;;;;;2.55;1.35;;;1.20;99.90;;;;;;5040363;28;20412;-62
2022/12/03 07:51:44;;;;;;;1.63;1.48;;;1.20;99.90;;;;;;5042081;28;20434;-66
2022/12/03 07:54:11;;;;;;;2.67;1.20;;;1.30;99.90;;;;;;5038168;28;20550;-67
2022/12/03 07:56:38;;;;;;;3.28;1.38;;;1.30;99.90;;;;;;5042211;28;20429;-67
2022/12/03 07:59:05;;;;;;;4.22;1.52;;;1.30;99.90;;;;;;5033450;28;20445;-76
2022/12/03 08:01:31;;;;;;;2.90;1.25;;;1.30;99.90;;;;;;5037523;28;20433;-76
2022/12/03 08:04:01;;;;;;;1.67;1.58;;;1.40;99.90;;;;;;5062526;28;20435;-75
2022/12/03 08:06:30;;;;;;;1.60;1.38;;;1.30;99.90;;;;;;5040400;28;20437;-75
2022/12/03 08:08:59;;;;;;;1.65;1.55;;;1.40;99.90;;;;;;5039394;28;20569;-76
2022/12/03 08:11:32;;;;;;;5.45;1.77;;;1.50;99.90;;;;;;5044734;28;20429;-76
2022/12/03 08:13:59;;;;;;;2.95;1.65;;;1.40;99.90;;;;;;5038770;28;20427;-75
2022/12/03 08:16:29;;;;;;;2.13;1.10;;;1.40;99.90;;;;;;5035076;28;20794;-76
2022/12/03 08:18:56;;;;;;;1.98;1.48;;;1.40;99.90;;;;;;5033768;28;20919;-76
2022/12/03 08:21:23;;;;;;;2.50;1.40;;;1.40;99.90;;;;;;5050820;28;20930;-75
2022/12/03 08:23:50;;;;;;;2.20;2.00;;;1.50;99.90;;;;;;5035618;28;20433;-76
2022/12/03 08:26:21;;;;;;;1.50;1.40;;;1.50;99.90;;;;;;5032845;28;20942;-75
2022/12/03 08:28:49;;;;;;;2.90;1.50;;;1.50;99.90;;;;;;5037805;28;20430;-76
2022/12/03 08:31:19;;;;;;;1.73;1.10;;;1.50;99.90;;;;;;5030820;28;20452;-76
2022/12/03 08:33:48;;;;;;;2.10;1.35;;;1.50;99.90;;;;;;5034706;28;20444;-75
2022/12/03 08:36:21;;;;;;;3.00;2.07;;;1.60;99.90;;;;;;5040296;28;20440;-76
2022/12/03 08:38:57;;;;;;;2.20;1.30;;;1.60;99.90;;;;;;5037146;28;20438;-76
2022/12/03 08:44:22;;;;;;;2.22;1.63;;;1.70;99.90;;;;;;5043322;28;20792;-75
2022/12/03 08:47:01;;;;;;;1.15;1.10;;;1.80;99.90;;;;;;5042478;28;20435;-75
2022/12/03 08:49:31;;;;;;;1.63;1.00;;;1.80;99.90;;;;;;5043090;28;20449;-75
2022/12/03 08:51:59;;;;;;;3.00;1.27;;;1.90;99.90;;;;;;5043571;28;20508;-75
2022/12/03 08:54:30;;;;;;;1.85;1.75;;;1.90;99.90;;;;;;5044232;28;20429;-75
2022/12/03 08:56:56;;;;;;;1.98;1.80;;;2.00;99.90;;;;;;5044080;28;20429;-75
2022/12/03 08:59:29;;;;;;;1.88;1.40;;;2.00;99.90;;;;;;5043127;28;20441;-75
2022/12/03 09:01:57;;;;;;;2.30;2.00;;;2.00;99.90;;;;;;5045629;28;20438;-76
2022/12/03 09:04:37;;;;;;;2.33;1.65;;;2.10;99.90;;;;;;5039819;28;20520;-76
2022/12/03 09:07:04;;;;;;;2.60;1.65;;;2.10;99.90;;;;;;5045395;28;22145;-76
2022/12/03 09:09:31;;;;;;;2.70;1.60;;;2.20;99.90;;;;;;5042827;28;20933;-75
2022/12/03 09:11:57;;;;;;;2.13;1.92;;;2.20;99.90;;;;;;5042357;28;20994;-76
2022/12/03 09:14:24;;;;;;;6.78;1.80;;;2.20;99.90;;;;;;5042211;28;20436;-76
2022/12/03 09:16:54;;;;;;;1.58;1.25;;;2.30;99.90;;;;;;5046644;28;20487;-76
2022/12/03 09:19:26;;;;;;;1.95;1.80;;;2.20;99.90;;;;;;5037544;28;21000;-76
2022/12/03 09:21:53;;;;;;;4.50;2.28;;;2.30;99.90;;;;;;5045549;28;20429;-76
2022/12/03 09:24:21;;;;;;;2.55;2.05;;;2.30;99.90;;;;;;5034591;28;20463;-76
2022/12/03 09:26:48;;;;;;;6.30;2.45;;;2.40;99.90;;;;;;5002491;28;20417;-76
2022/12/03 09:29:18;;;;;;;3.80;2.55;;;2.50;99.90;;;;;;5006547;28;20445;-76
2022/12/03 09:31:45;;;;;;;4.38;2.97;;;2.50;99.90;;;;;;4996757;28;20449;-75
2022/12/03 09:34:12;;;;;;;2.20;1.93;;;2.60;99.90;;;;;;5000389;28;20465;-72
2022/12/03 09:36:38;;;;;;;5.18;1.65;;;2.70;99.90;;;;;;4997330;28;20442;-75
2022/12/03 09:39:05;;;;;;;3.53;2.47;;;2.70;99.90;;;;;;4998077;28;20443;-76
2022/12/03 09:41:32;;;;;;;3.25;1.67;;;2.80;99.90;;;;;;5002961;28;20453;-77
2022/12/03 09:44:01;;;;;;;1.70;1.48;;;2.90;99.90;;;;;;4998471;28;20436;-76
2022/12/03 09:46:32;;;;;;;2.17;2.05;;;3.00;99.90;;;;;;5005446;28;20451;-76
2022/12/03 09:49:00;;;;;;;3.22;2.20;;;3.10;99.90;;;;;;5001338;28;20521;-76
2022/12/03 09:51:35;;;;;;;2.87;1.43;;;3.10;99.90;;;;;;5005247;28;20451;-76
2022/12/03 09:54:04;;;;;;;2.05;1.42;;;3.20;99.90;;;;;;5007513;28;20439;-76
2022/12/03 09:56:32;;;;;;;4.60;2.15;;;3.20;99.90;;;;;;5008675;28;20432;-76
2022/12/03 09:58:59;;;;;;;1.80;1.70;;;3.20;99.90;;;;;;5008141;28;20433;-76
2022/12/03 10:01:35;;;;;;;2.83;1.48;;;3.40;99.90;;;;;;4998653;28;20436;-76
2022/12/03 10:04:02;;;;;;;5.05;2.22;;;3.50;99.90;;;;;;5001727;28;20434;-76
2022/12/03 10:06:32;;;;;;;3.40;2.72;;;3.60;99.90;;;;;;4997866;28;20919;-76
2022/12/03 10:09:01;;;;;;;5.53;2.05;;;3.80;99.90;;;;;;5010065;28;20520;-76
2022/12/03 10:11:29;;;;;;;3.28;1.77;;;3.80;99.90;;;;;;5010706;28;20954;-76
2022/12/03 10:13:57;;;;;;;3.95;2.30;;;3.70;99.90;;;;;;5013127;28;20467;-76
2022/12/03 10:16:24;;;;;;;4.40;2.20;;;3.70;99.90;;;;;;5012804;28;20835;-76
2022/12/03 10:18:54;;;;;;;2.70;2.15;;;3.60;99.90;;;;;;5010638;28;20447;-76
2022/12/03 10:21:26;;;;;;;3.70;1.80;;;3.50;99.90;;;;;;5004263;28;20461;-76
2022/12/03 10:24:25;;;;;;;1.60;1.50;;;3.40;99.90;;;;;;5007117;28;20491;-75
2022/12/03 10:26:57;;;;;;;3.17;1.83;;;3.30;99.90;;;;;;5000346;28;20438;-76
2022/12/03 10:29:25;;;;;;;3.50;1.90;;;3.40;99.90;;;;;;4997486;28;21012;-76
2022/12/03 10:32:02;;;;;;;2.78;2.15;;;3.40;99.90;;;;;;4996658;28;20433;-75
2022/12/03 10:34:32;;;;;;;3.88;2.45;;;3.50;99.90;;;;;;4992222;28;20437;-75
2022/12/03 10:37:10;;;;;;;2.78;1.75;;;3.40;99.90;;;;;;5002430;28;20434;-77
2022/12/03 10:39:55;;;;;;;6.07;1.77;;;3.40;99.90;;;;;;5001279;28;20443;-75
2022/12/03 10:42:30;;;;;;;1.90;1.73;;;3.30;99.90;;;;;;5011323;28;20438;-74
2022/12/03 10:45:15;;;;;;;2.80;1.90;;;3.20;99.90;;;;;;5001036;28;20443;-75
2022/12/03 10:47:43;;;;;;;2.83;2.13;;;3.20;99.90;;;;;;5006541;28;20430;-73
2022/12/03 10:50:16;;;;;;;3.63;1.52;;;3.20;99.90;;;;;;5007360;28;20785;-73
2022/12/03 10:52:44;;;;;;;2.90;1.98;;;3.20;99.90;;;;;;5003204;28;20766;-73
2022/12/03 10:55:12;;;;;;;3.50;2.97;;;3.20;99.90;;;;;;5002121;28;20805;-74
2022/12/03 10:57:39;;;;;;;2.53;1.73;;;3.20;99.90;;;;;;5002932;28;20444;-73
2022/12/03 11:00:16;;;;;;;5.53;2.20;;;3.20;99.90;;;;;;5002644;28;20439;-74
2022/12/03 11:02:43;;;;;;;3.35;1.98;;;3.20;99.90;;;;;;5007755;28;20856;-75
2022/12/03 11:05:18;;;;;;;2.78;2.20;;;3.20;99.90;;;;;;4999953;28;20612;-71
2022/12/03 11:07:45;;;;;;;8.80;2.67;;;3.20;99.90;;;;;;4996652;28;20433;-74
2022/12/03 11:10:21;;;;;;;2.22;1.98;;;3.20;99.90;;;;;;5006187;28;20449;-74
2022/12/03 11:13:26;;;;;;;1.70;1.50;;;3.30;99.90;;;;;;5001191;28;20440;-74
2022/12/03 11:15:53;;;;;;;2.28;1.45;;;3.20;99.90;;;;;;5005404;28;20459;-72
2022/12/03 11:18:40;;;;;;;2.90;2.07;;;3.20;99.90;;;;;;4993998;28;20515;-72
2022/12/03 11:21:12;;;;;;;3.33;2.38;;;3.20;99.90;;;;;;4999740;28;20518;-74
2022/12/03 11:24:00;;;;;;;4.70;2.55;;;3.30;99.90;;;;;;4995409;28;20440;-72
2022/12/03 11:26:36;;;;;;;4.00;2.78;;;3.30;99.90;;;;;;5005611;28;20444;-73
2022/12/03 11:29:08;;;;;;;3.00;2.22;;;3.30;99.90;;;;;;4987245;28;20442;-73
2022/12/03 11:31:35;;;;;;;4.22;2.35;;;3.30;99.90;;;;;;4994477;28;20471;-73
2022/12/03 11:34:17;;;;;;;2.30;2.03;;;3.30;99.90;;;;;;4996721;28;20796;-74
2022/12/03 11:37:08;;;;;;;4.05;2.35;;;3.40;99.90;;;;;;5032690;28;20443;-77
2022/12/03 11:39:54;;;;;;;2.63;2.08;;;3.40;99.90;;;;;;5003368;28;20435;-73
2022/12/03 11:42:24;;;;;;;6.97;2.33;;;3.40;99.90;;;;;;4996495;28;20518;-75
2022/12/03 11:45:03;;;;;;;5.15;3.15;;;3.20;99.90;;;;;;5000839;28;20428;-75
2022/12/03 11:47:38;;;;;;;4.85;3.10;;;3.30;99.90;;;;;;4999611;28;20428;-75
2022/12/03 11:50:22;;;;;;;2.92;1.95;;;3.40;99.90;;;;;;5004427;28;20441;-74
2022/12/03 11:52:54;;;;;;;3.70;2.85;;;3.40;99.90;;;;;;4998174;28;20533;-74
2022/12/03 11:55:30;;;;;;;5.10;2.00;;;3.40;99.90;;;;;;5005744;28;20475;-74
2022/12/03 11:58:00;;;;;;;2.70;2.10;;;3.50;99.90;;;;;;5000508;28;20479;-73
2022/12/03 12:00:27;;;;;;;2.67;2.15;;;3.50;99.90;;;;;;4999048;28;20436;-72
2022/12/03 12:02:55;;;;;;;3.58;2.38;;;3.50;99.90;;;;;;4993473;28;20766;-74
2022/12/03 12:05:32;;;;;;;5.13;2.70;;;3.50;99.90;;;;;;4998918;28;20434;-74
2022/12/03 12:08:01;;;;;;;3.92;1.90;;;3.40;99.90;;;;;;4996808;28;20424;-74
2022/12/03 12:10:48;;;;;;;2.95;2.22;;;3.40;99.90;;;;;;4993014;28;20452;-74
2022/12/03 12:13:30;;;;;;;4.63;2.13;;;3.30;99.90;;;;;;4991328;28;20800;-74
2022/12/03 12:15:58;;;;;;;2.15;2.05;;;3.30;99.90;;;;;;4998192;28;20789;-74
2022/12/03 12:18:41;;;;;;;3.45;1.88;;;3.30;99.90;;;;;;5004877;28;20494;-74
2022/12/03 12:21:43;;;;;;;3.10;2.60;;;3.20;99.90;;;;;;4997078;28;20509;-74
2022/12/03 12:24:29;;;;;;;4.35;2.22;;;3.20;99.90;;;;;;4998641;28;21028;-74
2022/12/03 12:27:01;;;;;;;3.20;2.17;;;3.10;99.90;;;;;;4996464;28;20984;-74
2022/12/03 12:29:30;;;;;;;6.28;1.90;;;3.10;99.90;;;;;;4988655;28;21706;-74
2022/12/03 12:32:09;;;;;;;3.97;2.25;;;3.10;99.90;;;;;;5012750;28;20449;-74
2022/12/03 12:34:41;;;;;;;4.55;2.10;;;3.20;99.90;;;;;;4994977;28;20434;-74
2022/12/03 12:37:18;;;;;;;4.03;2.47;;;3.10;99.90;;;;;;5003489;28;20852;-74
2022/12/03 12:39:45;;;;;;;2.72;2.22;;;3.20;99.90;;;;;;4998019;28;20945;-74
2022/12/03 12:42:30;;;;;;;4.50;2.58;;;3.10;99.90;;;;;;4994037;28;20427;-74
2022/12/03 12:45:17;;;;;;;6.55;2.25;;;3.20;99.90;;;;;;4994714;28;20441;-74
2022/12/03 12:48:21;;;;;;;3.92;2.60;;;3.10;99.90;;;;;;4995794;28;20442;-74
2022/12/03 12:51:07;;;;;;;5.60;2.78;;;3.10;99.90;;;;;;4999065;28;20447;-74
2022/12/03 12:53:35;;;;;;;4.53;2.30;;;3.10;99.90;;;;;;5001206;28;20843;-74
2022/12/03 12:56:10;;;;;;;4.28;2.13;;;3.20;99.90;;;;;;5005172;28;20432;-72
2022/12/03 12:58:37;;;;;;;3.28;2.97;;;3.20;99.90;;;;;;4999669;28;20439;-70
2022/12/03 13:01:09;;;;;;;7.22;3.42;;;3.20;99.90;;;;;;5000063;28;20500;-63
2022/12/03 13:03:38;;;;;;;5.60;2.10;;;3.20;99.90;;;;;;4996176;28;20533;-68
2022/12/03 13:06:09;;;;;;;3.58;2.20;;;3.10;99.90;;;;;;5000506;28;20465;-75
2022/12/03 13:08:41;;;;;;;14.05;4.45;;;3.10;99.90;;;;;;5003613;28;20442;-75
2022/12/03 13:11:46;;;;;;;4.22;2.58;;;3.10;99.90;;;;;;5010467;28;20434;-74
2022/12/03 13:14:23;;;;;;;2.58;2.28;;;3.10;99.90;;;;;;5002835;28;20447;-75
2022/12/03 13:16:54;;;;;;;2.78;2.58;;;3.00;99.90;;;;;;5005994;28;20521;-75
2022/12/03 13:19:25;;;;;;;3.92;3.45;;;3.00;99.90;;;;;;5006737;28;20506;-75
2022/12/03 13:21:54;;;;;;;7.88;2.90;;;2.90;99.90;;;;;;5012057;28;20507;-75
2022/12/03 13:24:32;;;;;;;5.05;2.90;;;2.90;99.90;;;;;;5008741;28;20430;-75
2022/12/03 13:27:15;;;;;;;7.95;3.22;;;2.90;99.90;;;;;;5007664;28;20468;-74
2022/12/03 13:29:44;;;;;;;2.10;1.88;;;2.90;99.90;;;;;;5001097;28;21305;-75
2022/12/03 13:32:42;;;;;;;5.32;3.13;;;2.80;99.90;;;;;;4997689;28;21002;-75
2022/12/03 13:35:23;;;;;;;2.70;2.38;;;2.80;99.90;;;;;;5001420;28;20441;-75
2022/12/03 13:37:49;;;;;;;10.43;3.92;;;2.80;99.90;;;;;;5006913;28;20449;-75
2022/12/03 13:40:38;;;;;;;5.70;2.78;;;2.80;99.90;;;;;;5006880;28;20432;-75